サンサルバドル の空港の天気 - METARとTAF

エルサルバドル国際空港 ( MSLP / SAL ) - エルサルバドル サンサルバドル
飛行場実況気象(Metar)
観測時間12/03 21:50 CST (12/04 03:50 UTC)
風向・風速北 2m/s
視程10km以上
天気現象
なし
気温26℃
湿度84%
気圧1012hPa
METARMSLP 040350Z 36004KT CAVOK 26/23 Q1012 A2991 NOSIG
過去の天気等 Google飛行場航空写真 Wunderground天気予報

過去48時間のMETAR

飛行場予報(TAF)
発表時間: 12/03 09:25 CST (12/03 15:25 UTC)
予報対象時間: 3日12時 CST ~ 4日12時 CST
風向・風速南西 5m/s
視程10km以上
少しの雲 雲底高度 1830m
3日18時 CST から
風向・風速不定 1m/s
視程10km以上
なし
3日23時 CST から
風向・風速北東 5m/s
TAF MSLP 031525Z 0318/0418 22010KT 9999 FEW060 TX33/0318Z TN23/0410Z
FM040000 VRB02KT CAVOK
FM040500 04010KT